sensor_id;sensor_type;location;lat;lon;timestamp;P1;durP1;ratioP1;P2;durP2;ratioP2
53549;SDS011;67273;52.914;-0.982;2023-02-23T00:01:33;1.52;;;1.17;;
53549;SDS011;67273;52.914;-0.982;2023-02-23T00:03:59;2.20;;;1.15;;
53549;SDS011;67273;52.914;-0.982;2023-02-23T00:06:26;1.92;;;0.93;;
53549;SDS011;67273;52.914;-0.982;2023-02-23T00:08:53;2.10;;;1.30;;
53549;SDS011;67273;52.914;-0.982;2023-02-23T00:11:20;1.85;;;1.05;;
53549;SDS011;67273;52.914;-0.982;2023-02-23T00:13:47;1.55;;;1.00;;
53549;SDS011;67273;52.914;-0.982;2023-02-23T00:16:17;2.05;;;1.05;;
53549;SDS011;67273;52.914;-0.982;2023-02-23T00:18:46;1.33;;;1.00;;
53549;SDS011;67273;52.914;-0.982;2023-02-23T00:21:15;1.10;;;0.90;;
53549;SDS011;67273;52.914;-0.982;2023-02-23T00:23:42;1.38;;;1.10;;
53549;SDS011;67273;52.914;-0.982;2023-02-23T00:26:11;1.90;;;1.00;;
53549;SDS011;67273;52.914;-0.982;2023-02-23T00:28:38;1.58;;;1.00;;
53549;SDS011;67273;52.914;-0.982;2023-02-23T00:31:06;2.45;;;1.17;;
53549;SDS011;67273;52.914;-0.982;2023-02-23T00:33:32;2.15;;;1.00;;
53549;SDS011;67273;52.914;-0.982;2023-02-23T00:36:06;1.05;;;0.95;;
53549;SDS011;67273;52.914;-0.982;2023-02-23T00:41:03;1.05;;;0.80;;
53549;SDS011;67273;52.914;-0.982;2023-02-23T00:43:31;1.20;;;0.90;;
53549;SDS011;67273;52.914;-0.982;2023-02-23T00:45:58;1.45;;;1.00;;
53549;SDS011;67273;52.914;-0.982;2023-02-23T00:48:24;1.27;;;0.90;;
53549;SDS011;67273;52.914;-0.982;2023-02-23T00:50:56;1.00;;;0.90;;
53549;SDS011;67273;52.914;-0.982;2023-02-23T00:53:24;1.90;;;1.10;;
53549;SDS011;67273;52.914;-0.982;2023-02-23T00:55:51;1.20;;;0.90;;
53549;SDS011;67273;52.914;-0.982;2023-02-23T00:58:17;1.65;;;0.90;;
53549;SDS011;67273;52.914;-0.982;2023-02-23T01:00:42;1.42;;;1.00;;
53549;SDS011;67273;52.914;-0.982;2023-02-23T01:03:08;1.65;;;1.00;;
53549;SDS011;67273;52.914;-0.982;2023-02-23T01:05:34;0.80;;;0.80;;
53549;SDS011;67273;52.914;-0.982;2023-02-23T01:08:00;1.60;;;1.00;;
53549;SDS011;67273;52.914;-0.982;2023-02-23T01:10:27;1.90;;;0.90;;
53549;SDS011;67273;52.914;-0.982;2023-02-23T01:12:53;2.13;;;1.10;;
53549;SDS011;67273;52.914;-0.982;2023-02-23T01:15:19;1.63;;;0.90;;
53549;SDS011;67273;52.914;-0.982;2023-02-23T01:17:45;2.33;;;1.08;;
53549;SDS011;67273;52.914;-0.982;2023-02-23T01:20:13;2.38;;;1.23;;
53549;SDS011;67273;52.914;-0.982;2023-02-23T01:22:42;1.23;;;1.00;;
53549;SDS011;67273;52.914;-0.982;2023-02-23T01:25:11;1.13;;;1.00;;
53549;SDS011;67273;52.914;-0.982;2023-02-23T01:27:39;4.55;;;1.15;;
53549;SDS011;67273;52.914;-0.982;2023-02-23T01:30:09;1.88;;;1.00;;
53549;SDS011;67273;52.914;-0.982;2023-02-23T01:32:36;1.45;;;1.00;;
53549;SDS011;67273;52.914;-0.982;2023-02-23T01:35:03;1.05;;;0.90;;
53549;SDS011;67273;52.914;-0.982;2023-02-23T01:37:30;1.20;;;0.90;;
53549;SDS011;67273;52.914;-0.982;2023-02-23T01:39:59;2.03;;;1.00;;
53549;SDS011;67273;52.914;-0.982;2023-02-23T01:42:25;1.73;;;0.80;;
53549;SDS011;67273;52.914;-0.982;2023-02-23T01:47:54;2.15;;;0.98;;
53549;SDS011;67273;52.914;-0.982;2023-02-23T01:50:22;1.45;;;1.00;;
53549;SDS011;67273;52.914;-0.982;2023-02-23T01:52:51;0.88;;;0.80;;
53549;SDS011;67273;52.914;-0.982;2023-02-23T01:55:18;1.75;;;0.70;;
53549;SDS011;67273;52.914;-0.982;2023-02-23T01:57:50;1.75;;;0.90;;
53549;SDS011;67273;52.914;-0.982;2023-02-23T02:00:20;1.88;;;1.02;;
53549;SDS011;67273;52.914;-0.982;2023-02-23T02:02:51;1.08;;;0.82;;
53549;SDS011;67273;52.914;-0.982;2023-02-23T02:05:18;1.10;;;0.82;;
53549;SDS011;67273;52.914;-0.982;2023-02-23T02:07:48;0.82;;;0.77;;
53549;SDS011;67273;52.914;-0.982;2023-02-23T02:10:23;2.75;;;1.15;;
53549;SDS011;67273;52.914;-0.982;2023-02-23T02:13:08;1.00;;;0.88;;
53549;SDS011;67273;52.914;-0.982;2023-02-23T02:15:40;1.77;;;0.90;;
53549;SDS011;67273;52.914;-0.982;2023-02-23T02:18:22;1.15;;;1.00;;
53549;SDS011;67273;52.914;-0.982;2023-02-23T02:20:57;1.20;;;0.95;;
53549;SDS011;67273;52.914;-0.982;2023-02-23T02:23:52;1.67;;;1.10;;
53549;SDS011;67273;52.914;-0.982;2023-02-23T02:26:38;1.80;;;1.00;;
53549;SDS011;67273;52.914;-0.982;2023-02-23T02:29:22;2.35;;;1.00;;
53549;SDS011;67273;52.914;-0.982;2023-02-23T02:32:23;1.27;;;1.00;;
53549;SDS011;67273;52.914;-0.982;2023-02-23T02:40:51;1.35;;;0.85;;
53549;SDS011;67273;52.914;-0.982;2023-02-23T02:43:30;2.05;;;1.08;;
53549;SDS011;67273;52.914;-0.982;2023-02-23T02:46:03;1.58;;;0.88;;
53549;SDS011;67273;52.914;-0.982;2023-02-23T02:48:36;2.60;;;1.25;;
53549;SDS011;67273;52.914;-0.982;2023-02-23T02:51:10;1.80;;;1.10;;
53549;SDS011;67273;52.914;-0.982;2023-02-23T02:53:47;1.98;;;1.08;;
53549;SDS011;67273;52.914;-0.982;2023-02-23T02:56:19;1.90;;;1.02;;
53549;SDS011;67273;52.914;-0.982;2023-02-23T02:58:48;1.77;;;1.00;;
53549;SDS011;67273;52.914;-0.982;2023-02-23T03:01:16;1.92;;;1.15;;
53549;SDS011;67273;52.914;-0.982;2023-02-23T03:04:01;1.95;;;1.20;;
53549;SDS011;67273;52.914;-0.982;2023-02-23T03:07:04;1.50;;;1.00;;
53549;SDS011;67273;52.914;-0.982;2023-02-23T03:10:02;1.52;;;0.90;;
53549;SDS011;67273;52.914;-0.982;2023-02-23T03:12:58;1.55;;;0.80;;
53549;SDS011;67273;52.914;-0.982;2023-02-23T03:15:57;1.60;;;1.00;;
53549;SDS011;67273;52.914;-0.982;2023-02-23T03:18:55;1.23;;;0.80;;
53549;SDS011;67273;52.914;-0.982;2023-02-23T03:21:51;2.63;;;1.00;;
53549;SDS011;67273;52.914;-0.982;2023-02-23T03:24:40;2.45;;;1.20;;
53549;SDS011;67273;52.914;-0.982;2023-02-23T03:27:34;1.35;;;0.90;;
53549;SDS011;67273;52.914;-0.982;2023-02-23T03:30:28;1.50;;;0.98;;
53549;SDS011;67273;52.914;-0.982;2023-02-23T03:33:23;1.35;;;0.90;;
53549;SDS011;67273;52.914;-0.982;2023-02-23T03:36:16;1.45;;;0.95;;
53549;SDS011;67273;52.914;-0.982;2023-02-23T03:39:09;2.08;;;1.00;;
53549;SDS011;67273;52.914;-0.982;2023-02-23T03:42:01;1.98;;;1.00;;
53549;SDS011;67273;52.914;-0.982;2023-02-23T03:44:51;2.20;;;0.98;;
53549;SDS011;67273;52.914;-0.982;2023-02-23T03:47:38;1.20;;;0.77;;
53549;SDS011;67273;52.914;-0.982;2023-02-23T03:50:26;2.00;;;1.10;;
53549;SDS011;67273;52.914;-0.982;2023-02-23T03:53:16;1.70;;;0.82;;
53549;SDS011;67273;52.914;-0.982;2023-02-23T03:56:08;2.08;;;1.00;;
53549;SDS011;67273;52.914;-0.982;2023-02-23T03:58:58;1.73;;;1.10;;
53549;SDS011;67273;52.914;-0.982;2023-02-23T04:01:48;3.10;;;1.30;;
53549;SDS011;67273;52.914;-0.982;2023-02-23T04:04:36;1.88;;;0.95;;
53549;SDS011;67273;52.914;-0.982;2023-02-23T04:07:22;1.17;;;0.88;;
53549;SDS011;67273;52.914;-0.982;2023-02-23T04:10:08;2.78;;;1.10;;
53549;SDS011;67273;52.914;-0.982;2023-02-23T04:12:53;1.25;;;0.80;;
53549;SDS011;67273;52.914;-0.982;2023-02-23T04:15:40;1.08;;;0.73;;
53549;SDS011;67273;52.914;-0.982;2023-02-23T04:18:16;1.50;;;0.70;;
53549;SDS011;67273;52.914;-0.982;2023-02-23T04:20:45;1.85;;;0.90;;
53549;SDS011;67273;52.914;-0.982;2023-02-23T04:23:10;1.77;;;1.15;;
53549;SDS011;67273;52.914;-0.982;2023-02-23T04:25:36;1.42;;;1.00;;
53549;SDS011;67273;52.914;-0.982;2023-02-23T04:28:02;2.00;;;1.17;;
53549;SDS011;67273;52.914;-0.982;2023-02-23T04:30:28;2.22;;;0.90;;
53549;SDS011;67273;52.914;-0.982;2023-02-23T04:32:54;1.83;;;1.10;;
53549;SDS011;67273;52.914;-0.982;2023-02-23T04:35:22;1.50;;;0.93;;
53549;SDS011;67273;52.914;-0.982;2023-02-23T04:37:47;2.38;;;1.00;;
53549;SDS011;67273;52.914;-0.982;2023-02-23T04:40:13;1.42;;;1.10;;
53549;SDS011;67273;52.914;-0.982;2023-02-23T04:42:39;1.40;;;1.10;;
53549;SDS011;67273;52.914;-0.982;2023-02-23T04:45:07;1.45;;;1.00;;
53549;SDS011;67273;52.914;-0.982;2023-02-23T04:47:34;1.77;;;1.10;;
53549;SDS011;67273;52.914;-0.982;2023-02-23T04:50:03;2.85;;;1.27;;
53549;SDS011;67273;52.914;-0.982;2023-02-23T04:52:31;2.25;;;1.20;;
53549;SDS011;67273;52.914;-0.982;2023-02-23T04:54:59;2.17;;;1.13;;
53549;SDS011;67273;52.914;-0.982;2023-02-23T04:57:25;1.23;;;0.90;;
53549;SDS011;67273;52.914;-0.982;2023-02-23T04:59:51;1.95;;;0.90;;
53549;SDS011;67273;52.914;-0.982;2023-02-23T05:02:17;1.40;;;1.02;;
53549;SDS011;67273;52.914;-0.982;2023-02-23T05:04:43;1.55;;;0.88;;
53549;SDS011;67273;52.914;-0.982;2023-02-23T05:07:09;1.42;;;0.90;;
53549;SDS011;67273;52.914;-0.982;2023-02-23T05:09:36;1.73;;;1.08;;
53549;SDS011;67273;52.914;-0.982;2023-02-23T05:12:02;1.55;;;1.00;;
53549;SDS011;67273;52.914;-0.982;2023-02-23T05:14:28;2.15;;;1.10;;
53549;SDS011;67273;52.914;-0.982;2023-02-23T05:16:54;1.52;;;0.90;;
53549;SDS011;67273;52.914;-0.982;2023-02-23T05:19:19;3.47;;;1.40;;
53549;SDS011;67273;52.914;-0.982;2023-02-23T05:21:45;1.92;;;1.10;;
53549;SDS011;67273;52.914;-0.982;2023-02-23T05:24:12;1.35;;;0.90;;
53549;SDS011;67273;52.914;-0.982;2023-02-23T05:26:43;2.63;;;1.10;;
53549;SDS011;67273;52.914;-0.982;2023-02-23T05:29:11;3.03;;;1.30;;
53549;SDS011;67273;52.914;-0.982;2023-02-23T05:31:39;2.50;;;1.20;;
53549;SDS011;67273;52.914;-0.982;2023-02-23T05:34:06;2.63;;;1.30;;
53549;SDS011;67273;52.914;-0.982;2023-02-23T05:36:34;3.53;;;1.40;;
53549;SDS011;67273;52.914;-0.982;2023-02-23T05:39:03;3.13;;;1.27;;
53549;SDS011;67273;52.914;-0.982;2023-02-23T05:41:28;4.03;;;1.40;;
53549;SDS011;67273;52.914;-0.982;2023-02-23T05:43:55;3.10;;;1.30;;
53549;SDS011;67273;52.914;-0.982;2023-02-23T05:46:22;1.90;;;1.20;;
53549;SDS011;67273;52.914;-0.982;2023-02-23T05:48:49;2.80;;;1.27;;
53549;SDS011;67273;52.914;-0.982;2023-02-23T05:51:15;3.10;;;1.27;;
53549;SDS011;67273;52.914;-0.982;2023-02-23T05:53:42;3.83;;;1.45;;
53549;SDS011;67273;52.914;-0.982;2023-02-23T05:56:10;4.07;;;1.40;;
53549;SDS011;67273;52.914;-0.982;2023-02-23T05:58:37;3.03;;;1.50;;
53549;SDS011;67273;52.914;-0.982;2023-02-23T06:01:04;3.83;;;1.60;;
53549;SDS011;67273;52.914;-0.982;2023-02-23T06:03:30;2.28;;;1.40;;
53549;SDS011;67273;52.914;-0.982;2023-02-23T06:05:56;4.25;;;1.73;;
53549;SDS011;67273;52.914;-0.982;2023-02-23T06:08:23;3.25;;;1.40;;
53549;SDS011;67273;52.914;-0.982;2023-02-23T06:10:50;3.97;;;1.52;;
53549;SDS011;67273;52.914;-0.982;2023-02-23T06:13:16;4.10;;;1.63;;
53549;SDS011;67273;52.914;-0.982;2023-02-23T06:15:42;3.35;;;1.67;;
53549;SDS011;67273;52.914;-0.982;2023-02-23T06:18:10;2.65;;;1.30;;
53549;SDS011;67273;52.914;-0.982;2023-02-23T06:20:35;2.60;;;1.40;;
53549;SDS011;67273;52.914;-0.982;2023-02-23T06:23:02;4.13;;;1.90;;
53549;SDS011;67273;52.914;-0.982;2023-02-23T06:25:29;3.30;;;1.48;;
53549;SDS011;67273;52.914;-0.982;2023-02-23T06:27:54;3.60;;;1.55;;
53549;SDS011;67273;52.914;-0.982;2023-02-23T06:30:20;4.13;;;1.85;;
53549;SDS011;67273;52.914;-0.982;2023-02-23T06:32:46;5.75;;;1.95;;
53549;SDS011;67273;52.914;-0.982;2023-02-23T06:35:19;4.82;;;1.88;;
53549;SDS011;67273;52.914;-0.982;2023-02-23T06:37:45;3.72;;;1.75;;
53549;SDS011;67273;52.914;-0.982;2023-02-23T06:40:10;4.50;;;2.00;;
53549;SDS011;67273;52.914;-0.982;2023-02-23T06:42:36;3.95;;;1.60;;
53549;SDS011;67273;52.914;-0.982;2023-02-23T06:45:02;2.88;;;1.63;;
53549;SDS011;67273;52.914;-0.982;2023-02-23T06:47:29;4.30;;;1.70;;
53549;SDS011;67273;52.914;-0.982;2023-02-23T06:49:54;3.75;;;1.52;;
53549;SDS011;67273;52.914;-0.982;2023-02-23T06:52:21;4.38;;;1.67;;
53549;SDS011;67273;52.914;-0.982;2023-02-23T06:54:49;4.80;;;1.80;;
53549;SDS011;67273;52.914;-0.982;2023-02-23T06:57:15;3.33;;;1.50;;
53549;SDS011;67273;52.914;-0.982;2023-02-23T06:59:41;3.90;;;1.50;;
53549;SDS011;67273;52.914;-0.982;2023-02-23T07:02:08;3.67;;;1.65;;
53549;SDS011;67273;52.914;-0.982;2023-02-23T07:04:35;3.95;;;1.70;;
53549;SDS011;67273;52.914;-0.982;2023-02-23T07:07:01;3.97;;;1.35;;
53549;SDS011;67273;52.914;-0.982;2023-02-23T07:09:28;4.25;;;1.80;;
53549;SDS011;67273;52.914;-0.982;2023-02-23T07:11:53;4.53;;;1.83;;
53549;SDS011;67273;52.914;-0.982;2023-02-23T07:14:19;3.88;;;1.70;;
53549;SDS011;67273;52.914;-0.982;2023-02-23T07:16:45;4.88;;;1.77;;
53549;SDS011;67273;52.914;-0.982;2023-02-23T07:19:11;3.78;;;1.70;;
53549;SDS011;67273;52.914;-0.982;2023-02-23T07:21:37;3.55;;;1.70;;
53549;SDS011;67273;52.914;-0.982;2023-02-23T07:24:03;4.07;;;1.80;;
53549;SDS011;67273;52.914;-0.982;2023-02-23T07:26:31;4.15;;;1.60;;
53549;SDS011;67273;52.914;-0.982;2023-02-23T07:28:57;4.00;;;1.77;;
53549;SDS011;67273;52.914;-0.982;2023-02-23T07:31:24;4.45;;;1.58;;
53549;SDS011;67273;52.914;-0.982;2023-02-23T07:33:50;5.43;;;1.90;;
53549;SDS011;67273;52.914;-0.982;2023-02-23T07:36:17;4.95;;;2.20;;
53549;SDS011;67273;52.914;-0.982;2023-02-23T07:38:42;4.43;;;1.67;;
53549;SDS011;67273;52.914;-0.982;2023-02-23T07:41:08;4.30;;;1.92;;
53549;SDS011;67273;52.914;-0.982;2023-02-23T07:43:36;4.15;;;1.73;;
53549;SDS011;67273;52.914;-0.982;2023-02-23T07:46:02;4.18;;;1.80;;
53549;SDS011;67273;52.914;-0.982;2023-02-23T07:48:28;3.33;;;1.42;;
53549;SDS011;67273;52.914;-0.982;2023-02-23T07:50:53;5.43;;;1.83;;
53549;SDS011;67273;52.914;-0.982;2023-02-23T07:53:19;4.38;;;2.00;;
53549;SDS011;67273;52.914;-0.982;2023-02-23T07:55:45;5.50;;;1.80;;
53549;SDS011;67273;52.914;-0.982;2023-02-23T07:58:19;4.38;;;2.03;;
53549;SDS011;67273;52.914;-0.982;2023-02-23T08:00:46;3.97;;;2.03;;
53549;SDS011;67273;52.914;-0.982;2023-02-23T08:03:12;4.38;;;1.88;;
53549;SDS011;67273;52.914;-0.982;2023-02-23T08:05:39;4.18;;;1.80;;
53549;SDS011;67273;52.914;-0.982;2023-02-23T08:08:05;5.45;;;2.47;;
53549;SDS011;67273;52.914;-0.982;2023-02-23T08:10:31;5.05;;;1.90;;
53549;SDS011;67273;52.914;-0.982;2023-02-23T08:12:56;4.13;;;2.00;;
53549;SDS011;67273;52.914;-0.982;2023-02-23T08:15:23;4.47;;;1.90;;
53549;SDS011;67273;52.914;-0.982;2023-02-23T08:17:50;3.20;;;1.70;;
53549;SDS011;67273;52.914;-0.982;2023-02-23T08:20:16;6.13;;;2.08;;
53549;SDS011;67273;52.914;-0.982;2023-02-23T08:22:42;4.65;;;1.98;;
53549;SDS011;67273;52.914;-0.982;2023-02-23T08:25:08;4.32;;;1.90;;
53549;SDS011;67273;52.914;-0.982;2023-02-23T08:27:35;4.18;;;1.88;;
53549;SDS011;67273;52.914;-0.982;2023-02-23T08:30:02;5.55;;;2.10;;
53549;SDS011;67273;52.914;-0.982;2023-02-23T08:32:31;5.35;;;2.13;;
53549;SDS011;67273;52.914;-0.982;2023-02-23T08:35:00;4.70;;;1.83;;
53549;SDS011;67273;52.914;-0.982;2023-02-23T08:37:29;4.30;;;2.08;;
53549;SDS011;67273;52.914;-0.982;2023-02-23T08:39:55;3.63;;;1.70;;
53549;SDS011;67273;52.914;-0.982;2023-02-23T08:42:22;4.13;;;2.17;;
53549;SDS011;67273;52.914;-0.982;2023-02-23T08:44:47;4.57;;;1.92;;
53549;SDS011;67273;52.914;-0.982;2023-02-23T08:47:13;5.28;;;1.70;;
53549;SDS011;67273;52.914;-0.982;2023-02-23T08:49:41;5.22;;;1.98;;
53549;SDS011;67273;52.914;-0.982;2023-02-23T08:52:09;3.95;;;1.80;;
53549;SDS011;67273;52.914;-0.982;2023-02-23T08:54:35;4.57;;;2.08;;
53549;SDS011;67273;52.914;-0.982;2023-02-23T08:57:01;4.00;;;1.80;;
53549;SDS011;67273;52.914;-0.982;2023-02-23T08:59:27;4.13;;;1.92;;
53549;SDS011;67273;52.914;-0.982;2023-02-23T09:01:52;4.47;;;2.03;;
53549;SDS011;67273;52.914;-0.982;2023-02-23T09:04:18;4.05;;;1.73;;
53549;SDS011;67273;52.914;-0.982;2023-02-23T09:06:44;5.18;;;1.95;;
53549;SDS011;67273;52.914;-0.982;2023-02-23T09:09:13;5.18;;;1.63;;
53549;SDS011;67273;52.914;-0.982;2023-02-23T09:11:40;5.00;;;1.90;;
53549;SDS011;67273;52.914;-0.982;2023-02-23T09:14:07;4.22;;;1.90;;
53549;SDS011;67273;52.914;-0.982;2023-02-23T09:16:34;4.03;;;1.80;;
53549;SDS011;67273;52.914;-0.982;2023-02-23T09:19:03;3.70;;;1.80;;
53549;SDS011;67273;52.914;-0.982;2023-02-23T09:21:31;3.95;;;1.83;;
53549;SDS011;67273;52.914;-0.982;2023-02-23T09:23:58;4.95;;;1.80;;
53549;SDS011;67273;52.914;-0.982;2023-02-23T09:26:27;4.78;;;1.90;;
53549;SDS011;67273;52.914;-0.982;2023-02-23T09:28:53;4.03;;;1.80;;
53549;SDS011;67273;52.914;-0.982;2023-02-23T09:31:21;4.15;;;1.90;;
53549;SDS011;67273;52.914;-0.982;2023-02-23T09:33:48;4.85;;;1.85;;
53549;SDS011;67273;52.914;-0.982;2023-02-23T09:36:15;4.03;;;1.90;;
53549;SDS011;67273;52.914;-0.982;2023-02-23T09:38:44;4.25;;;1.85;;
53549;SDS011;67273;52.914;-0.982;2023-02-23T09:41:23;4.95;;;1.95;;
53549;SDS011;67273;52.914;-0.982;2023-02-23T09:44:14;4.57;;;2.05;;
53549;SDS011;67273;52.914;-0.982;2023-02-23T09:46:57;4.15;;;1.77;;
53549;SDS011;67273;52.914;-0.982;2023-02-23T09:49:36;4.75;;;1.98;;
53549;SDS011;67273;52.914;-0.982;2023-02-23T09:52:05;4.03;;;1.75;;
53549;SDS011;67273;52.914;-0.982;2023-02-23T09:54:39;5.85;;;2.00;;
53549;SDS011;67273;52.914;-0.982;2023-02-23T09:57:09;4.85;;;2.03;;
53549;SDS011;67273;52.914;-0.982;2023-02-23T09:59:42;4.63;;;1.90;;
53549;SDS011;67273;52.914;-0.982;2023-02-23T10:02:13;4.07;;;1.90;;
53549;SDS011;67273;52.914;-0.982;2023-02-23T10:04:46;5.03;;;2.10;;
53549;SDS011;67273;52.914;-0.982;2023-02-23T10:07:17;4.30;;;1.90;;
53549;SDS011;67273;52.914;-0.982;2023-02-23T10:09:58;3.58;;;1.70;;
53549;SDS011;67273;52.914;-0.982;2023-02-23T10:15:11;3.75;;;1.80;;
53549;SDS011;67273;52.914;-0.982;2023-02-23T10:17:45;3.45;;;1.70;;
53549;SDS011;67273;52.914;-0.982;2023-02-23T10:20:18;4.03;;;2.00;;
53549;SDS011;67273;52.914;-0.982;2023-02-23T10:22:52;4.47;;;1.90;;
53549;SDS011;67273;52.914;-0.982;2023-02-23T10:25:23;4.72;;;2.03;;
53549;SDS011;67273;52.914;-0.982;2023-02-23T10:27:50;4.60;;;1.83;;
53549;SDS011;67273;52.914;-0.982;2023-02-23T10:30:18;3.85;;;1.80;;
53549;SDS011;67273;52.914;-0.982;2023-02-23T10:32:50;4.82;;;2.08;;
53549;SDS011;67273;52.914;-0.982;2023-02-23T10:35:21;4.03;;;2.10;;
53549;SDS011;67273;52.914;-0.982;2023-02-23T10:37:49;5.13;;;1.90;;
53549;SDS011;67273;52.914;-0.982;2023-02-23T10:40:18;3.80;;;1.67;;
53549;SDS011;67273;52.914;-0.982;2023-02-23T10:42:47;4.90;;;1.98;;
53549;SDS011;67273;52.914;-0.982;2023-02-23T10:45:14;4.45;;;1.95;;
53549;SDS011;67273;52.914;-0.982;2023-02-23T10:47:50;6.13;;;2.05;;
53549;SDS011;67273;52.914;-0.982;2023-02-23T10:50:17;5.68;;;2.22;;
53549;SDS011;67273;52.914;-0.982;2023-02-23T10:52:47;6.22;;;1.83;;
53549;SDS011;67273;52.914;-0.982;2023-02-23T10:55:22;5.22;;;2.00;;
53549;SDS011;67273;52.914;-0.982;2023-02-23T10:57:51;4.65;;;1.92;;
53549;SDS011;67273;52.914;-0.982;2023-02-23T11:00:27;4.95;;;2.10;;
53549;SDS011;67273;52.914;-0.982;2023-02-23T11:02:59;6.15;;;2.67;;
53549;SDS011;67273;52.914;-0.982;2023-02-23T11:05:32;5.35;;;2.22;;
53549;SDS011;67273;52.914;-0.982;2023-02-23T11:08:07;8.32;;;2.25;;
53549;SDS011;67273;52.914;-0.982;2023-02-23T11:10:34;4.80;;;2.20;;
53549;SDS011;67273;52.914;-0.982;2023-02-23T11:13:00;5.78;;;2.30;;
53549;SDS011;67273;52.914;-0.982;2023-02-23T11:15:27;4.85;;;1.90;;
53549;SDS011;67273;52.914;-0.982;2023-02-23T11:17:54;5.35;;;1.92;;
53549;SDS011;67273;52.914;-0.982;2023-02-23T11:20:24;6.07;;;2.40;;
53549;SDS011;67273;52.914;-0.982;2023-02-23T11:22:53;5.30;;;2.53;;
53549;SDS011;67273;52.914;-0.982;2023-02-23T11:25:22;4.80;;;2.03;;
53549;SDS011;67273;52.914;-0.982;2023-02-23T11:27:52;4.55;;;2.15;;
53549;SDS011;67273;52.914;-0.982;2023-02-23T11:30:21;5.18;;;2.22;;
53549;SDS011;67273;52.914;-0.982;2023-02-23T11:32:49;5.80;;;2.40;;
53549;SDS011;67273;52.914;-0.982;2023-02-23T11:35:25;5.80;;;1.88;;
53549;SDS011;67273;52.914;-0.982;2023-02-23T11:37:54;4.93;;;2.00;;
53549;SDS011;67273;52.914;-0.982;2023-02-23T11:40:21;4.57;;;1.85;;
53549;SDS011;67273;52.914;-0.982;2023-02-23T11:42:53;5.07;;;1.90;;
53549;SDS011;67273;52.914;-0.982;2023-02-23T11:45:21;5.97;;;2.10;;
53549;SDS011;67273;52.914;-0.982;2023-02-23T11:47:50;3.95;;;1.85;;
53549;SDS011;67273;52.914;-0.982;2023-02-23T11:50:21;5.45;;;1.90;;
53549;SDS011;67273;52.914;-0.982;2023-02-23T11:52:51;4.32;;;1.83;;
53549;SDS011;67273;52.914;-0.982;2023-02-23T11:55:22;5.75;;;2.20;;
53549;SDS011;67273;52.914;-0.982;2023-02-23T11:57:49;6.57;;;2.03;;
53549;SDS011;67273;52.914;-0.982;2023-02-23T12:00:21;6.45;;;2.00;;
53549;SDS011;67273;52.914;-0.982;2023-02-23T12:02:50;6.05;;;2.50;;
53549;SDS011;67273;52.914;-0.982;2023-02-23T12:05:19;5.32;;;2.10;;
53549;SDS011;67273;52.914;-0.982;2023-02-23T12:07:52;7.40;;;2.35;;
53549;SDS011;67273;52.914;-0.982;2023-02-23T12:10:25;5.70;;;1.95;;
53549;SDS011;67273;52.914;-0.982;2023-02-23T12:12:56;5.35;;;2.22;;
53549;SDS011;67273;52.914;-0.982;2023-02-23T12:15:40;3.92;;;1.88;;
53549;SDS011;67273;52.914;-0.982;2023-02-23T12:18:14;4.15;;;2.00;;
53549;SDS011;67273;52.914;-0.982;2023-02-23T12:20:47;4.43;;;1.92;;
53549;SDS011;67273;52.914;-0.982;2023-02-23T12:23:20;5.72;;;2.38;;
53549;SDS011;67273;52.914;-0.982;2023-02-23T12:25:51;4.82;;;1.90;;
53549;SDS011;67273;52.914;-0.982;2023-02-23T12:28:22;5.57;;;2.00;;
53549;SDS011;67273;52.914;-0.982;2023-02-23T12:30:57;4.78;;;1.83;;
53549;SDS011;67273;52.914;-0.982;2023-02-23T12:33:28;5.07;;;1.85;;
53549;SDS011;67273;52.914;-0.982;2023-02-23T12:35:59;5.60;;;1.90;;
53549;SDS011;67273;52.914;-0.982;2023-02-23T12:38:32;5.10;;;2.08;;
53549;SDS011;67273;52.914;-0.982;2023-02-23T12:41:08;4.25;;;1.75;;
53549;SDS011;67273;52.914;-0.982;2023-02-23T12:43:37;4.50;;;1.75;;
53549;SDS011;67273;52.914;-0.982;2023-02-23T12:46:13;3.88;;;1.85;;
53549;SDS011;67273;52.914;-0.982;2023-02-23T12:51:23;4.40;;;1.83;;
53549;SDS011;67273;52.914;-0.982;2023-02-23T12:53:55;6.15;;;2.00;;
53549;SDS011;67273;52.914;-0.982;2023-02-23T12:56:25;4.28;;;1.85;;
53549;SDS011;67273;52.914;-0.982;2023-02-23T13:02:04;3.38;;;1.75;;
53549;SDS011;67273;52.914;-0.982;2023-02-23T13:07:38;5.18;;;2.03;;
53549;SDS011;67273;52.914;-0.982;2023-02-23T13:10:19;5.53;;;1.80;;
53549;SDS011;67273;52.914;-0.982;2023-02-23T13:12:51;6.10;;;2.03;;
53549;SDS011;67273;52.914;-0.982;2023-02-23T13:15:28;3.17;;;1.50;;
53549;SDS011;67273;52.914;-0.982;2023-02-23T13:18:07;4.25;;;1.88;;
53549;SDS011;67273;52.914;-0.982;2023-02-23T13:20:41;3.80;;;1.65;;
53549;SDS011;67273;52.914;-0.982;2023-02-23T13:23:15;4.40;;;1.90;;
53549;SDS011;67273;52.914;-0.982;2023-02-23T13:25:50;3.60;;;1.85;;
53549;SDS011;67273;52.914;-0.982;2023-02-23T13:28:27;3.60;;;1.50;;
53549;SDS011;67273;52.914;-0.982;2023-02-23T13:31:04;4.53;;;1.60;;
53549;SDS011;67273;52.914;-0.982;2023-02-23T13:33:40;4.35;;;1.90;;
53549;SDS011;67273;52.914;-0.982;2023-02-23T13:36:06;3.67;;;1.73;;
53549;SDS011;67273;52.914;-0.982;2023-02-23T13:38:33;3.20;;;1.60;;
53549;SDS011;67273;52.914;-0.982;2023-02-23T13:41:11;3.35;;;1.50;;
53549;SDS011;67273;52.914;-0.982;2023-02-23T13:43:45;4.68;;;1.75;;
53549;SDS011;67273;52.914;-0.982;2023-02-23T13:46:23;3.75;;;1.73;;
53549;SDS011;67273;52.914;-0.982;2023-02-23T13:48:56;3.25;;;1.40;;
53549;SDS011;67273;52.914;-0.982;2023-02-23T13:51:35;4.43;;;1.80;;
53549;SDS011;67273;52.914;-0.982;2023-02-23T13:54:05;4.13;;;1.77;;
53549;SDS011;67273;52.914;-0.982;2023-02-23T13:56:50;4.22;;;1.88;;
53549;SDS011;67273;52.914;-0.982;2023-02-23T13:59:20;3.35;;;1.73;;
53549;SDS011;67273;52.914;-0.982;2023-02-23T14:01:48;3.25;;;1.67;;
53549;SDS011;67273;52.914;-0.982;2023-02-23T14:04:20;2.85;;;1.50;;
53549;SDS011;67273;52.914;-0.982;2023-02-23T14:06:51;4.45;;;1.98;;
53549;SDS011;67273;52.914;-0.982;2023-02-23T14:11:49;3.38;;;1.52;;
53549;SDS011;67273;52.914;-0.982;2023-02-23T14:17:08;5.35;;;1.70;;
53549;SDS011;67273;52.914;-0.982;2023-02-23T14:19:36;4.05;;;1.63;;
53549;SDS011;67273;52.914;-0.982;2023-02-23T14:22:06;5.03;;;1.88;;
53549;SDS011;67273;52.914;-0.982;2023-02-23T14:24:35;3.00;;;1.58;;
53549;SDS011;67273;52.914;-0.982;2023-02-23T14:27:10;3.50;;;1.52;;
53549;SDS011;67273;52.914;-0.982;2023-02-23T14:32:38;2.33;;;1.30;;
53549;SDS011;67273;52.914;-0.982;2023-02-23T14:35:04;3.60;;;1.48;;
53549;SDS011;67273;52.914;-0.982;2023-02-23T14:37:58;4.27;;;1.60;;
53549;SDS011;67273;52.914;-0.982;2023-02-23T14:40:28;3.75;;;1.40;;
53549;SDS011;67273;52.914;-0.982;2023-02-23T14:43:00;3.47;;;1.50;;
53549;SDS011;67273;52.914;-0.982;2023-02-23T14:45:28;2.97;;;1.40;;
53549;SDS011;67273;52.914;-0.982;2023-02-23T14:47:56;3.17;;;1.63;;
53549;SDS011;67273;52.914;-0.982;2023-02-23T14:50:29;3.05;;;1.60;;
53549;SDS011;67273;52.914;-0.982;2023-02-23T14:52:57;3.72;;;1.65;;
53549;SDS011;67273;52.914;-0.982;2023-02-23T14:55:26;3.20;;;1.50;;
53549;SDS011;67273;52.914;-0.982;2023-02-23T14:57:53;3.15;;;1.33;;
53549;SDS011;67273;52.914;-0.982;2023-02-23T15:00:22;2.85;;;1.48;;
53549;SDS011;67273;52.914;-0.982;2023-02-23T15:02:52;4.25;;;1.80;;
53549;SDS011;67273;52.914;-0.982;2023-02-23T15:05:22;3.42;;;1.45;;
53549;SDS011;67273;52.914;-0.982;2023-02-23T15:07:48;2.33;;;1.30;;
53549;SDS011;67273;52.914;-0.982;2023-02-23T15:10:16;3.15;;;1.48;;
53549;SDS011;67273;52.914;-0.982;2023-02-23T15:12:46;2.53;;;1.45;;
53549;SDS011;67273;52.914;-0.982;2023-02-23T15:15:14;3.85;;;1.45;;
53549;SDS011;67273;52.914;-0.982;2023-02-23T15:17:43;2.40;;;1.48;;
53549;SDS011;67273;52.914;-0.982;2023-02-23T15:20:12;3.83;;;1.60;;
53549;SDS011;67273;52.914;-0.982;2023-02-23T15:22:41;2.00;;;1.30;;
53549;SDS011;67273;52.914;-0.982;2023-02-23T15:25:13;2.92;;;1.40;;
53549;SDS011;67273;52.914;-0.982;2023-02-23T15:27:41;4.00;;;1.40;;